createdAt,value
2019-03-04T00:00:23.780Z,99431.69
2019-03-04T00:03:31.701Z,99437.09
2019-03-04T00:06:37.997Z,99431.36
2019-03-04T00:09:44.738Z,99436.84
2019-03-04T00:12:51.534Z,99431.53
2019-03-04T00:15:57.855Z,99435.30
2019-03-04T00:19:04.370Z,99423.11
2019-03-04T00:22:10.934Z,99424.48
2019-03-04T00:25:17.316Z,99424.48
2019-03-04T00:28:23.636Z,99434.39
2019-03-04T00:31:30.157Z,99431.33
2019-03-04T00:34:36.492Z,99435.23
2019-03-04T00:37:42.905Z,99441.53
2019-03-04T00:40:49.138Z,99436.64
2019-03-04T00:43:55.445Z,99429.22
2019-03-04T00:47:01.674Z,99438.44
2019-03-04T00:50:09.046Z,99426.23
2019-03-04T00:53:15.375Z,99420.53
2019-03-04T00:56:21.634Z,99426.43
2019-03-04T00:59:27.936Z,99423.74
2019-03-04T01:02:35.310Z,99415.76
2019-03-04T01:05:41.710Z,99412.91
2019-03-04T01:08:48.329Z,99409.45
2019-03-04T01:11:54.636Z,99406.06
2019-03-04T01:15:01.039Z,99400.53
2019-03-04T01:18:07.656Z,99399.23
2019-03-04T01:21:14.011Z,99398.52
2019-03-04T01:24:20.474Z,99393.61
2019-03-04T01:27:26.974Z,99381.78
2019-03-04T01:30:33.319Z,99375.71
2019-03-04T01:33:39.662Z,99372.91
2019-03-04T01:36:46.118Z,99385.63
2019-03-04T01:39:53.669Z,99374.26
2019-03-04T01:42:59.982Z,99380.68
2019-03-04T01:46:06.347Z,99374.53
2019-03-04T01:49:12.607Z,99373.77
2019-03-04T01:52:19.036Z,99364.47
2019-03-04T01:55:25.337Z,99365.68
2019-03-04T01:58:31.603Z,99361.69
2019-03-04T02:01:38.904Z,99363.73
2019-03-04T02:04:46.892Z,99365.98
2019-03-04T02:07:53.180Z,99348.08
2019-03-04T02:11:00.576Z,99355.63
2019-03-04T02:14:06.819Z,99345.85
2019-03-04T02:17:13.304Z,99338.14
2019-03-04T02:20:19.626Z,99333.25
2019-03-04T02:23:26.009Z,99330.13
2019-03-04T02:26:33.671Z,99330.79
2019-03-04T02:29:40.042Z,99328.48
2019-03-04T02:32:46.379Z,99329.38
2019-03-04T02:35:52.748Z,99325.98
2019-03-04T02:38:59.001Z,99321.33
2019-03-04T02:42:05.679Z,99320.98
2019-03-04T02:45:13.926Z,99316.21
2019-03-04T02:48:20.273Z,99328.37
2019-03-04T02:51:26.501Z,99312.64
2019-03-04T02:54:33.883Z,99320.69
2019-03-04T02:57:40.221Z,99311.17
2019-03-04T03:00:46.656Z,99304.21
2019-03-04T03:03:52.993Z,99306.44
2019-03-04T03:06:59.845Z,99310.83
2019-03-04T03:10:06.512Z,99301.53
2019-03-04T03:13:12.849Z,99308.02
2019-03-04T03:16:20.212Z,99296.20
2019-03-04T03:19:27.197Z,99303.80
2019-03-04T03:22:33.542Z,99302.80
2019-03-04T03:25:40.175Z,99296.00
2019-03-04T03:28:46.532Z,99296.91
2019-03-04T03:31:52.841Z,99296.45
2019-03-04T03:34:59.219Z,99287.27
2019-03-04T03:38:05.679Z,99288.01
2019-03-04T03:41:12.053Z,99299.33
2019-03-04T03:44:18.383Z,99297.28
2019-03-04T03:47:24.710Z,99292.30
2019-03-04T03:50:31.041Z,99294.94
2019-03-04T03:53:37.371Z,99288.93
2019-03-04T03:56:43.859Z,99294.72
2019-03-04T03:59:50.378Z,99283.29
2019-03-04T04:02:56.693Z,99283.36
2019-03-04T04:06:03.007Z,99286.17
2019-03-04T04:09:09.775Z,99280.43
2019-03-04T04:12:16.190Z,99271.28
2019-03-04T04:15:22.563Z,99259.21
2019-03-04T04:18:29.856Z,99257.54
2019-03-04T04:21:36.383Z,99254.09
2019-03-04T04:24:42.718Z,99255.73
2019-03-04T04:27:49.135Z,99245.00
2019-03-04T04:30:55.448Z,99246.42
2019-03-04T04:34:02.009Z,99251.71
2019-03-04T04:37:09.355Z,99241.56
2019-03-04T04:40:15.698Z,99242.52
2019-03-04T04:43:22.013Z,99247.55
2019-03-04T04:46:48.888Z,99243.23
2019-03-04T04:49:55.170Z,99241.77
2019-03-04T04:53:01.716Z,99237.61
2019-03-04T04:56:08.056Z,99237.79
2019-03-04T04:59:14.554Z,99238.33
2019-03-04T05:02:20.874Z,99230.70
2019-03-04T05:05:27.373Z,99230.56
2019-03-04T05:08:33.715Z,99226.63
2019-03-04T05:11:40.922Z,99212.62
2019-03-04T05:14:47.294Z,99213.83
2019-03-04T05:17:53.573Z,99218.07
2019-03-04T05:20:59.898Z,99212.41
2019-03-04T05:24:06.447Z,99199.64
2019-03-04T05:27:12.775Z,99199.09
2019-03-04T05:30:19.707Z,99182.44
2019-03-04T05:33:26.034Z,99182.44
2019-03-04T05:36:32.451Z,99175.64
2019-03-04T05:39:39.172Z,99176.60
2019-03-04T05:42:45.497Z,99173.91
2019-03-04T05:45:51.893Z,99169.80
2019-03-04T05:48:58.457Z,99161.12
2019-03-04T05:52:04.812Z,99158.82
2019-03-04T05:55:14.116Z,99152.20
2019-03-04T05:58:21.322Z,99152.05
2019-03-04T06:01:30.946Z,99145.48
2019-03-04T06:04:37.758Z,99147.45
2019-03-04T06:07:56.722Z,99134.12
2019-03-04T06:11:02.994Z,99132.53
2019-03-04T06:14:12.683Z,99128.03
2019-03-04T06:17:19.225Z,99120.98
2019-03-04T06:20:26.269Z,99111.44
2019-03-04T06:23:32.509Z,99113.98
2019-03-04T06:26:38.896Z,99119.41
2019-03-04T06:29:46.417Z,99115.59
2019-03-04T06:32:52.872Z,99109.95
2019-03-04T06:35:59.250Z,99110.34
2019-03-04T06:39:08.213Z,99109.38
2019-03-04T06:42:14.809Z,99107.14
2019-03-04T06:45:21.289Z,99111.59
2019-03-04T06:48:27.716Z,99100.55
2019-03-04T06:51:43.050Z,99096.70
2019-03-04T06:55:31.912Z,99092.40
2019-03-04T06:58:41.435Z,99077.95
2019-03-04T07:01:51.414Z,99083.62
2019-03-04T07:05:12.216Z,99084.45
2019-03-04T07:08:56.840Z,99081.44
2019-03-04T07:12:03.381Z,99078.64
2019-03-04T07:15:10.445Z,99077.43
2019-03-04T07:18:16.932Z,99069.86
2019-03-04T07:21:23.366Z,99064.20
2019-03-04T07:24:30.200Z,99061.51
2019-03-04T07:27:36.427Z,99063.42
2019-03-04T07:30:42.801Z,99052.23
2019-03-04T07:33:49.241Z,99058.16
2019-03-04T07:36:55.674Z,99059.50
2019-03-04T07:40:02.092Z,99055.02
2019-03-04T07:43:08.832Z,99044.80
2019-03-04T07:46:15.171Z,99047.59
2019-03-04T07:49:21.669Z,99041.70
2019-03-04T07:52:28.000Z,99045.23
2019-03-04T07:55:34.680Z,99042.55
2019-03-04T07:58:41.304Z,99041.20
2019-03-04T08:01:47.736Z,99039.86
2019-03-04T08:04:54.189Z,99035.03
2019-03-04T08:08:00.493Z,99039.06
2019-03-04T08:11:59.896Z,99040.08
2019-03-04T08:15:08.230Z,99026.86
2019-03-04T08:18:15.599Z,99025.23
2019-03-04T08:21:21.941Z,99025.23
2019-03-04T08:24:28.315Z,99027.81
2019-03-04T08:27:34.886Z,99019.98
2019-03-04T08:30:41.221Z,99014.50
2019-03-04T08:33:48.445Z,99009.61
2019-03-04T08:36:55.299Z,99009.97
2019-03-04T08:40:02.733Z,99015.92
2019-03-04T08:43:10.454Z,99009.72
2019-03-04T08:46:17.087Z,99005.36
2019-03-04T08:49:23.726Z,99007.22
2019-03-04T08:52:30.104Z,99004.64
2019-03-04T08:55:36.367Z,99008.78
2019-03-04T08:58:42.691Z,98995.34
2019-03-04T09:01:49.444Z,98998.86
2019-03-04T09:04:56.017Z,98996.09
2019-03-04T09:08:02.701Z,98983.70
2019-03-04T09:11:09.480Z,98982.96
2019-03-04T09:14:16.136Z,98979.87
2019-03-04T09:17:22.712Z,98969.44
2019-03-04T09:20:29.618Z,98968.19
2019-03-04T09:23:36.064Z,98972.34
2019-03-04T09:26:43.580Z,98960.32
2019-03-04T09:29:50.020Z,98956.28
2019-03-04T09:32:56.339Z,98955.38
2019-03-04T09:36:02.582Z,98946.69
2019-03-04T09:39:11.686Z,98949.16
2019-03-04T09:42:20.862Z,98940.67
2019-03-04T09:45:27.267Z,98940.47
2019-03-04T09:48:33.731Z,98942.75
2019-03-04T09:51:40.196Z,98935.70
2019-03-04T09:54:46.599Z,98934.27
2019-03-04T09:57:52.912Z,98922.87
2019-03-04T10:01:36.125Z,98926.08
2019-03-04T10:05:02.242Z,98921.92
2019-03-04T10:08:40.180Z,98906.73
2019-03-04T10:11:56.770Z,98908.47
2019-03-04T10:15:41.831Z,98898.67
2019-03-04T10:19:24.251Z,98894.52
2019-03-04T10:22:51.927Z,98892.34
2019-03-04T10:26:23.189Z,98893.28
2019-03-04T10:30:12.470Z,98885.86
2019-03-04T10:34:11.929Z,98889.33
2019-03-04T10:38:00.897Z,98871.94
2019-03-04T10:41:39.760Z,98876.06
2019-03-04T10:45:18.374Z,98868.09
2019-03-04T10:48:24.859Z,98855.60
2019-03-04T10:51:31.259Z,98854.26
2019-03-04T10:54:37.524Z,98858.58
2019-03-04T10:57:44.082Z,98841.28
2019-03-04T11:00:50.564Z,98849.77
2019-03-04T11:03:56.942Z,98836.37
2019-03-04T11:07:03.442Z,98830.33
2019-03-04T11:10:10.101Z,98816.88
2019-03-04T11:13:17.223Z,98824.34
2019-03-04T11:16:24.791Z,98813.13
2019-03-04T11:19:31.110Z,98810.24
2019-03-04T11:22:38.196Z,98803.61
2019-03-04T11:25:44.566Z,98801.66
2019-03-04T11:28:51.094Z,98796.51
2019-03-04T11:31:58.065Z,98790.39
2019-03-04T11:35:05.210Z,98775.82
2019-03-04T11:38:41.132Z,98762.34
2019-03-04T11:41:47.472Z,98770.30
2019-03-04T11:44:54.208Z,98773.23
2019-03-04T11:48:00.606Z,98761.58
2019-03-04T11:51:06.974Z,98745.55
2019-03-04T11:54:13.507Z,98747.28
2019-03-04T11:57:20.180Z,98731.50
2019-03-04T12:00:39.024Z,98731.75
2019-03-04T12:03:45.444Z,98728.72
2019-03-04T12:06:51.801Z,98726.42
2019-03-04T12:09:58.122Z,98722.20
2019-03-04T12:13:05.196Z,98705.25
2019-03-04T12:16:11.548Z,98708.34
2019-03-04T12:19:17.919Z,98712.48
2019-03-04T12:22:24.408Z,98704.42
2019-03-04T12:25:31.754Z,98704.84
2019-03-04T12:28:39.372Z,98699.59
2019-03-04T12:31:57.022Z,98698.15
2019-03-04T12:35:03.766Z,98690.73
2019-03-04T12:38:10.647Z,98683.02
2019-03-04T12:41:17.463Z,98673.35
2019-03-04T12:44:23.805Z,98674.12
2019-03-04T12:47:33.640Z,98660.22
2019-03-04T12:50:40.660Z,98666.34
2019-03-04T12:53:46.930Z,98658.92
2019-03-04T12:56:53.419Z,98649.61
2019-03-04T12:59:59.815Z,98653.25
2019-03-04T13:03:06.459Z,98633.56
2019-03-04T13:06:12.858Z,98628.62
2019-03-04T13:09:19.238Z,98626.67
2019-03-04T13:12:25.639Z,98621.55
2019-03-04T13:15:32.054Z,98622.46
2019-03-04T13:18:38.638Z,98607.35
2019-03-04T13:21:44.998Z,98607.18
2019-03-04T13:24:51.419Z,98597.63
2019-03-04T13:28:07.845Z,98592.44
2019-03-04T13:31:06.627Z,98582.66
2019-03-04T13:34:12.987Z,98583.75
2019-03-04T13:37:19.389Z,98576.25
2019-03-04T13:40:26.127Z,98563.36
2019-03-04T13:43:32.599Z,98557.35
2019-03-04T13:46:39.627Z,98557.19
2019-03-04T13:49:46.765Z,98542.06
2019-03-04T13:52:53.118Z,98552.06
2019-03-04T13:55:59.525Z,98548.31
2019-03-04T13:59:05.792Z,98547.50
2019-03-04T14:02:12.138Z,98523.88
2019-03-04T14:05:19.693Z,98523.88
2019-03-04T14:08:27.081Z,98525.17
2019-03-04T14:11:33.510Z,98518.99
2019-03-04T14:14:40.975Z,98509.19
2019-03-04T14:17:47.340Z,98504.13
2019-03-04T14:20:53.753Z,98493.95
2019-03-04T14:24:00.411Z,98490.36
2019-03-04T14:27:06.744Z,98478.73
2019-03-04T14:30:15.365Z,98469.92
2019-03-04T14:33:21.871Z,98470.98
2019-03-04T14:36:28.300Z,98461.84
2019-03-04T14:39:35.020Z,98456.50
2019-03-04T14:42:41.669Z,98458.88
2019-03-04T14:45:48.345Z,98456.94
2019-03-04T14:48:55.168Z,98454.53
2019-03-04T14:52:01.522Z,98449.58
2019-03-04T14:55:10.240Z,98446.61
2019-03-04T14:58:16.740Z,98437.36
2019-03-04T15:01:23.516Z,98434.20
2019-03-04T15:04:29.847Z,98435.49
2019-03-04T15:07:36.232Z,98426.44
2019-03-04T15:10:42.707Z,98422.55
2019-03-04T15:13:49.141Z,98422.33
2019-03-04T15:17:02.978Z,98410.73
2019-03-04T15:20:09.303Z,98404.02
2019-03-04T15:23:12.067Z,98407.69
2019-03-04T15:26:18.503Z,98407.02
2019-03-04T15:29:24.927Z,98402.23
2019-03-04T15:32:31.622Z,98399.69
2019-03-04T15:35:38.355Z,98401.87
2019-03-04T15:38:44.632Z,98394.31
2019-03-04T15:41:51.229Z,98383.02
2019-03-04T15:44:58.075Z,98376.38
2019-03-04T15:48:04.899Z,98371.16
2019-03-04T15:51:11.370Z,98372.19
2019-03-04T15:54:17.687Z,98365.47
2019-03-04T15:57:24.084Z,98366.00
2019-03-04T16:00:32.165Z,98356.88
2019-03-04T16:03:38.662Z,98347.98
2019-03-04T16:06:44.911Z,98332.00
2019-03-04T16:09:51.706Z,98336.02
2019-03-04T16:13:16.096Z,98321.69
2019-03-04T16:16:22.406Z,98313.89
2019-03-04T16:19:28.733Z,98307.64
2019-03-04T16:22:35.054Z,98300.75
2019-03-04T16:25:41.477Z,98305.54
2019-03-04T16:28:51.453Z,98298.59
2019-03-04T16:31:57.778Z,98284.30
2019-03-04T16:35:05.924Z,98279.53
2019-03-04T16:38:12.556Z,98277.58
2019-03-04T16:41:18.948Z,98285.41
2019-03-04T16:44:25.311Z,98270.84
2019-03-04T16:47:31.864Z,98252.47
2019-03-04T16:50:38.644Z,98252.47
2019-03-04T16:53:45.072Z,98246.19
2019-03-04T16:56:51.448Z,98245.71
2019-03-04T16:59:57.710Z,98248.41
2019-03-04T17:03:04.295Z,98240.81
2019-03-04T17:06:10.722Z,98246.05
2019-03-04T17:09:19.011Z,98236.60
2019-03-04T17:12:25.451Z,98225.56
2019-03-04T17:15:31.809Z,98220.01
2019-03-04T17:18:38.361Z,98224.60
2019-03-04T17:21:44.735Z,98223.01
2019-03-04T17:24:51.731Z,98211.49
2019-03-04T17:27:58.085Z,98207.45
2019-03-04T17:31:04.432Z,98207.94
2019-03-04T17:34:11.005Z,98190.90
2019-03-04T17:37:17.929Z,98190.55
2019-03-04T17:40:24.389Z,98184.27
2019-03-04T17:43:31.701Z,98183.24
2019-03-04T17:46:38.073Z,98179.73
2019-03-04T17:49:44.641Z,98172.92
2019-03-04T17:52:51.036Z,98172.61
2019-03-04T17:55:58.314Z,98166.91
2019-03-04T17:59:04.811Z,98154.65
2019-03-04T18:02:11.694Z,98154.23
2019-03-04T18:05:18.576Z,98146.58
2019-03-04T18:08:25.253Z,98145.50
2019-03-04T18:11:32.062Z,98141.19
2019-03-04T18:14:39.455Z,98126.24
2019-03-04T18:17:45.868Z,98126.24
2019-03-04T18:20:52.544Z,98124.09
2019-03-04T18:23:58.958Z,98116.20
2019-03-04T18:27:09.033Z,98114.67
2019-03-04T18:30:59.618Z,98102.69
2019-03-04T18:34:42.969Z,98100.58
2019-03-04T18:38:20.773Z,98098.13
2019-03-04T18:41:59.756Z,98084.83
2019-03-04T18:45:53.022Z,98078.56
2019-03-04T18:49:02.954Z,98072.72
2019-03-04T18:52:09.483Z,98067.58
2019-03-04T18:55:15.817Z,98062.77
2019-03-04T18:58:22.185Z,98070.75
2019-03-04T19:01:28.846Z,98050.60
2019-03-04T19:04:35.520Z,98050.16
2019-03-04T19:07:42.116Z,98038.81
2019-03-04T19:10:48.430Z,98029.20
2019-03-04T19:13:56.978Z,98029.78
2019-03-04T19:17:03.473Z,98024.63
2019-03-04T19:20:12.369Z,98016.16
2019-03-04T19:23:20.225Z,98015.17
2019-03-04T19:26:26.749Z,98020.89
2019-03-04T19:29:33.376Z,98007.19
2019-03-04T19:32:39.719Z,98009.88
2019-03-04T19:35:46.165Z,98015.38
2019-03-04T19:38:53.027Z,98013.52
2019-03-04T19:41:59.388Z,98010.94
2019-03-04T19:45:07.463Z,97999.02
2019-03-04T19:48:15.247Z,98000.25
2019-03-04T19:51:23.623Z,98005.56
2019-03-04T19:54:30.118Z,98008.14
2019-03-04T19:57:36.570Z,97998.02
2019-03-04T20:00:46.635Z,97993.97
2019-03-04T20:03:53.444Z,97988.37
2019-03-04T20:06:59.940Z,97984.03
2019-03-04T20:10:07.147Z,97992.95
2019-03-04T20:13:13.512Z,97986.95
2019-03-04T20:16:19.901Z,97993.87
2019-03-04T20:19:26.269Z,97997.56
2019-03-04T20:22:32.717Z,97992.58
2019-03-04T20:25:39.087Z,97990.88
2019-03-04T20:28:45.485Z,97990.00
2019-03-04T20:31:52.046Z,97989.95
2019-03-04T20:34:58.570Z,97990.00
2019-03-04T20:38:04.984Z,97982.30
2019-03-04T20:41:11.782Z,97986.68
2019-03-04T20:44:18.576Z,97995.48
2019-03-04T20:47:25.322Z,97985.91
2019-03-04T20:50:31.651Z,97990.27
2019-03-04T20:53:38.138Z,97987.43
2019-03-04T20:56:46.626Z,97989.23
2019-03-04T20:59:53.321Z,97985.50
2019-03-04T21:02:59.704Z,97988.52
2019-03-04T21:06:06.257Z,97994.34
2019-03-04T21:09:15.491Z,97994.41
2019-03-04T21:12:22.066Z,97997.77
2019-03-04T21:15:30.042Z,98006.74
2019-03-04T21:18:36.688Z,98011.82
2019-03-04T21:21:43.117Z,98008.00
2019-03-04T21:24:49.472Z,98017.84
2019-03-04T21:27:56.719Z,98016.25
2019-03-04T21:31:35.994Z,98022.03
2019-03-04T21:35:05.865Z,98011.11
2019-03-04T21:38:12.366Z,98011.11
2019-03-04T21:41:38.872Z,98020.87
2019-03-04T21:45:10.543Z,98018.17
2019-03-04T21:48:21.400Z,97947.85
2019-03-04T21:51:43.022Z,98020.95
2019-03-04T21:54:50.542Z,98015.57
2019-03-04T21:57:57.941Z,98020.64
2019-03-04T22:01:16.979Z,98030.11
2019-03-04T22:04:23.470Z,98025.09
2019-03-04T22:07:29.891Z,98029.32
2019-03-04T22:10:36.317Z,98032.72
2019-03-04T22:13:42.713Z,98020.43
2019-03-04T22:16:49.066Z,98032.94
2019-03-04T22:19:55.516Z,98048.07
2019-03-04T22:23:02.148Z,98045.77
2019-03-04T22:26:08.487Z,98044.63
2019-03-04T22:29:14.990Z,98047.05
2019-03-04T22:32:21.469Z,98059.55
2019-03-04T22:35:27.938Z,98055.20
2019-03-04T22:38:34.235Z,98053.45
2019-03-04T22:41:41.064Z,98045.20
2019-03-04T22:44:48.498Z,98052.87
2019-03-04T22:47:54.825Z,98054.17
2019-03-04T22:51:01.252Z,98055.59
2019-03-04T22:54:07.717Z,98062.89
2019-03-04T22:57:14.424Z,98066.68
2019-03-04T23:01:26.810Z,98066.68
2019-03-04T23:05:01.042Z,98072.85
2019-03-04T23:08:09.523Z,98085.83
2019-03-04T23:11:15.975Z,98080.52
2019-03-04T23:14:26.382Z,98083.66
2019-03-04T23:17:32.791Z,98083.07
2019-03-04T23:20:39.246Z,98085.28
2019-03-04T23:23:45.507Z,98081.28
2019-03-04T23:26:51.878Z,98087.45
2019-03-04T23:29:58.562Z,98093.72
2019-03-04T23:33:05.036Z,98094.42
2019-03-04T23:36:11.385Z,98102.24
2019-03-04T23:39:17.881Z,98113.73
2019-03-04T23:42:24.331Z,98109.63
2019-03-04T23:45:30.659Z,98108.50
2019-03-04T23:48:36.989Z,98110.22
2019-03-04T23:51:43.875Z,98118.89
2019-03-04T23:54:50.387Z,98121.88
2019-03-04T23:57:56.871Z,98123.96
